createdAt,value
2023-04-14T00:00:03.407Z,98662.86
2023-04-14T00:02:42.540Z,98657.88
2023-04-14T00:05:14.362Z,98663.09
2023-04-14T00:07:43.164Z,98665.45
2023-04-14T00:10:11.167Z,98666.94
2023-04-14T00:12:39.238Z,98664.23
2023-04-14T00:15:07.917Z,98665.90
2023-04-14T00:17:37.754Z,98664.05
2023-04-14T00:20:07.309Z,98663.75
2023-04-14T00:22:35.341Z,98667.46
2023-04-14T00:25:04.533Z,98667.46
2023-04-14T00:27:37.694Z,98668.46
2023-04-14T00:30:06.668Z,98670.64
2023-04-14T00:32:38.631Z,98669.40
2023-04-14T00:35:06.940Z,98666.56
2023-04-14T00:37:37.938Z,98665.67
2023-04-14T00:40:11.269Z,98661.92
2023-04-14T00:42:45.719Z,98666.75
2023-04-14T00:45:14.263Z,98666.14
2023-04-14T00:47:47.001Z,98662.51
2023-04-14T00:50:15.333Z,98664.93
2023-04-14T00:52:44.879Z,98666.08
2023-04-14T00:55:13.805Z,98667.67
2023-04-14T00:57:41.731Z,98667.00
2023-04-14T01:00:11.610Z,98664.92
2023-04-14T01:02:42.873Z,98666.02
2023-04-14T01:05:14.701Z,98668.83
2023-04-14T01:07:43.008Z,98671.52
2023-04-14T01:10:11.674Z,98676.17
2023-04-14T01:13:08.632Z,98676.80
2023-04-14T01:15:47.971Z,98677.76
2023-04-14T01:18:27.886Z,98677.98
2023-04-14T01:21:07.214Z,98680.91
2023-04-14T01:23:37.275Z,98679.91
2023-04-14T01:26:17.825Z,98682.45
2023-04-14T01:29:22.079Z,98684.39
2023-04-14T01:31:54.332Z,98677.48
2023-04-14T01:34:30.057Z,98674.77
2023-04-14T01:37:02.554Z,98677.52
2023-04-14T01:39:39.243Z,98676.75
2023-04-14T01:42:11.842Z,98678.48
2023-04-14T01:44:43.110Z,98674.20
2023-04-14T01:47:13.305Z,98677.39
2023-04-14T01:49:42.521Z,98683.11
2023-04-14T01:52:11.056Z,98682.25
2023-04-14T01:54:40.180Z,98682.65
2023-04-14T01:57:11.968Z,98678.79
2023-04-14T01:59:41.792Z,98683.97
2023-04-14T02:02:12.151Z,98681.70
2023-04-14T02:04:40.648Z,98683.25
2023-04-14T02:07:10.858Z,98680.47
2023-04-14T02:09:39.732Z,98688.29
2023-04-14T02:12:08.724Z,98685.88
2023-04-14T02:14:36.665Z,98685.73
2023-04-14T02:17:07.442Z,98688.61
2023-04-14T02:19:35.668Z,98691.65
2023-04-14T02:22:03.716Z,98692.07
2023-04-14T02:24:32.319Z,98697.02
2023-04-14T02:27:33.103Z,98697.69
2023-04-14T02:30:12.848Z,98702.45
2023-04-14T02:32:48.108Z,98707.92
2023-04-14T02:35:29.136Z,98708.84
2023-04-14T02:38:07.454Z,98710.08
2023-04-14T02:40:38.181Z,98711.40
2023-04-14T02:43:29.300Z,98715.06
2023-04-14T02:46:01.184Z,98719.30
2023-04-14T02:48:31.303Z,98717.42
2023-04-14T02:51:00.321Z,98728.02
2023-04-14T02:53:29.755Z,98729.02
2023-04-14T02:56:25.754Z,98729.93
2023-04-14T02:58:54.581Z,98728.84
2023-04-14T03:01:23.598Z,98731.23
2023-04-14T03:03:53.534Z,98731.33
2023-04-14T03:06:21.985Z,98736.86
2023-04-14T03:08:50.180Z,98740.19
2023-04-14T03:11:21.372Z,98740.91
2023-04-14T03:13:52.366Z,98744.41
2023-04-14T03:16:21.504Z,98745.66
2023-04-14T03:18:49.574Z,98746.31
2023-04-14T03:21:19.275Z,98743.91
2023-04-14T03:23:50.955Z,98743.63
2023-04-14T03:26:20.317Z,98746.19
2023-04-14T03:28:51.314Z,98745.66
2023-04-14T03:31:19.848Z,98747.23
2023-04-14T03:33:57.331Z,98749.62
2023-04-14T03:36:31.225Z,98748.84
2023-04-14T03:39:01.731Z,98749.09
2023-04-14T03:41:37.966Z,98746.59
2023-04-14T03:44:06.897Z,98750.81
2023-04-14T03:46:39.788Z,98753.63
2023-04-14T03:49:11.212Z,98753.88
2023-04-14T03:51:39.449Z,98754.39
2023-04-14T03:54:08.238Z,98755.88
2023-04-14T03:56:38.458Z,98761.37
2023-04-14T03:59:12.668Z,98761.51
2023-04-14T04:01:42.025Z,98767.06
2023-04-14T04:04:10.961Z,98770.00
2023-04-14T04:08:57.550Z,98772.45
2023-04-14T04:11:29.265Z,98773.66
2023-04-14T04:13:59.453Z,98771.34
2023-04-14T04:16:27.997Z,98776.67
2023-04-14T04:18:56.074Z,98778.34
2023-04-14T04:21:28.457Z,98783.09
2023-04-14T04:23:59.454Z,98785.72
2023-04-14T04:26:27.605Z,98787.91
2023-04-14T04:29:00.679Z,98783.57
2023-04-14T04:31:30.348Z,98786.52
2023-04-14T04:34:02.046Z,98787.66
2023-04-14T04:36:31.797Z,98790.27
2023-04-14T04:39:00.493Z,98793.27
2023-04-14T04:41:30.240Z,98792.27
2023-04-14T04:44:02.799Z,98799.98
2023-04-14T04:46:53.752Z,98802.23
2023-04-14T04:49:26.394Z,98801.34
2023-04-14T04:51:57.077Z,98802.66
2023-04-14T04:54:25.284Z,98807.88
2023-04-14T04:56:55.043Z,98811.19
2023-04-14T04:59:23.233Z,98818.05
2023-04-14T05:01:57.633Z,98818.90
2023-04-14T05:04:26.366Z,98818.77
2023-04-14T05:06:54.969Z,98822.09
2023-04-14T05:09:29.398Z,98825.75
2023-04-14T05:11:58.177Z,98829.95
2023-04-14T05:14:27.495Z,98830.88
2023-04-14T05:16:57.086Z,98829.91
2023-04-14T05:19:25.443Z,98831.41
2023-04-14T05:21:55.796Z,98839.02
2023-04-14T05:24:27.529Z,98835.69
2023-04-14T05:27:12.427Z,98835.58
2023-04-14T05:29:42.331Z,98842.82
2023-04-14T05:32:13.105Z,98844.38
2023-04-14T05:34:41.920Z,98844.48
2023-04-14T05:37:12.568Z,98844.02
2023-04-14T05:39:40.620Z,98845.28
2023-04-14T05:42:11.858Z,98846.83
2023-04-14T05:44:42.185Z,98847.33
2023-04-14T05:47:10.552Z,98846.27
2023-04-14T05:49:39.245Z,98846.56
2023-04-14T05:52:07.234Z,98849.86
2023-04-14T05:54:43.020Z,98849.60
2023-04-14T05:57:11.575Z,98849.15
2023-04-14T05:59:39.661Z,98855.27
2023-04-14T06:04:51.375Z,98860.63
2023-04-14T06:07:19.574Z,98864.40
2023-04-14T06:09:48.951Z,98867.36
2023-04-14T06:12:17.040Z,98865.52
2023-04-14T06:14:47.095Z,98867.71
2023-04-14T06:17:17.844Z,98871.85
2023-04-14T06:19:49.956Z,98871.10
2023-04-14T06:22:19.932Z,98876.83
2023-04-14T06:24:48.079Z,98874.90
2023-04-14T06:27:16.570Z,98877.96
2023-04-14T06:29:45.539Z,98876.94
2023-04-14T06:32:13.963Z,98876.77
2023-04-14T06:34:51.932Z,98884.63
2023-04-14T06:37:21.821Z,98889.81
2023-04-14T06:39:52.915Z,98894.77
2023-04-14T06:42:26.045Z,98895.88
2023-04-14T06:44:54.110Z,98899.94
2023-04-14T06:47:22.602Z,98895.95
2023-04-14T06:49:51.078Z,98887.19
2023-04-14T06:52:21.060Z,98892.36
2023-04-14T06:54:52.520Z,98896.71
2023-04-14T06:57:20.766Z,98898.89
2023-04-14T06:59:51.311Z,98902.06
2023-04-14T07:02:19.637Z,98901.16
2023-04-14T07:04:50.806Z,98909.55
2023-04-14T07:07:20.873Z,98914.75
2023-04-14T07:09:51.484Z,98917.20
2023-04-14T07:12:24.072Z,98921.30
2023-04-14T07:14:58.701Z,98923.05
2023-04-14T07:17:27.191Z,98925.90
2023-04-14T07:19:56.919Z,98921.16
2023-04-14T07:22:25.304Z,98925.70
2023-04-14T07:24:56.560Z,98924.64
2023-04-14T07:27:29.034Z,98927.39
2023-04-14T07:29:58.592Z,98929.95
2023-04-14T07:32:31.279Z,98926.91
2023-04-14T07:34:59.731Z,98929.08
2023-04-14T07:37:30.665Z,98928.03
2023-04-14T07:39:59.268Z,98929.62
2023-04-14T07:42:29.005Z,98927.73
2023-04-14T07:45:02.837Z,98927.79
2023-04-14T07:47:32.188Z,98927.48
2023-04-14T07:50:00.507Z,98926.66
2023-04-14T07:52:32.745Z,98926.85
2023-04-14T07:55:07.928Z,98924.29
2023-04-14T07:57:36.153Z,98925.09
2023-04-14T08:00:04.682Z,98926.39
2023-04-14T08:02:41.294Z,98930.22
2023-04-14T08:05:11.060Z,98933.54
2023-04-14T08:07:39.992Z,98938.13
2023-04-14T08:10:14.526Z,98937.45
2023-04-14T08:12:46.827Z,98944.08
2023-04-14T08:15:15.656Z,98945.90
2023-04-14T08:17:45.256Z,98942.38
2023-04-14T08:20:13.362Z,98946.36
2023-04-14T08:22:43.382Z,98941.96
2023-04-14T08:25:12.383Z,98946.83
2023-04-14T08:27:41.657Z,98949.63
2023-04-14T08:30:11.547Z,98947.39
2023-04-14T08:32:43.643Z,98946.90
2023-04-14T08:35:40.051Z,98944.95
2023-04-14T08:38:04.296Z,98941.92
2023-04-14T08:40:40.336Z,98935.91
2023-04-14T08:43:08.624Z,98936.95
2023-04-14T08:45:40.239Z,98929.99
2023-04-14T08:48:10.753Z,98933.14
2023-04-14T08:50:49.536Z,98930.98
2023-04-14T08:53:18.589Z,98935.11
2023-04-14T08:55:46.928Z,98936.47
2023-04-14T08:58:16.223Z,98935.36
2023-04-14T09:00:48.791Z,98935.76
2023-04-14T09:03:19.302Z,98940.63
2023-04-14T09:05:49.303Z,98936.89
2023-04-14T09:08:22.860Z,98933.35
2023-04-14T09:10:51.648Z,98940.00
2023-04-14T09:13:21.142Z,98944.64
2023-04-14T09:15:53.360Z,98951.00
2023-04-14T09:18:22.120Z,98951.31
2023-04-14T09:21:50.085Z,98954.14
2023-04-14T09:23:44.029Z,98955.97
2023-04-14T09:26:13.579Z,98959.52
2023-04-14T09:28:42.164Z,98961.48
2023-04-14T09:31:10.862Z,98964.41
2023-04-14T09:33:40.653Z,98965.34
2023-04-14T09:36:24.999Z,98967.02
2023-04-14T09:38:53.466Z,98973.81
2023-04-14T09:41:23.516Z,98970.56
2023-04-14T09:43:55.520Z,98969.46
2023-04-14T09:46:25.247Z,98973.84
2023-04-14T09:48:55.706Z,98974.74
2023-04-14T09:51:28.429Z,98976.93
2023-04-14T09:54:05.174Z,98980.86
2023-04-14T09:56:35.585Z,98979.90
2023-04-14T09:59:04.423Z,98984.50
2023-04-14T10:01:34.574Z,98980.64
2023-04-14T10:04:03.331Z,98979.84
2023-04-14T10:06:32.575Z,98976.71
2023-04-14T10:09:01.691Z,98976.84
2023-04-14T10:11:33.076Z,98977.11
2023-04-14T10:14:09.212Z,98971.23
2023-04-14T10:16:37.434Z,98975.21
2023-04-14T10:19:05.815Z,98980.92
2023-04-14T10:21:42.887Z,98986.75
2023-04-14T10:24:11.795Z,98991.54
2023-04-14T10:26:42.855Z,98996.95
2023-04-14T10:29:17.438Z,99000.33
2023-04-14T10:31:51.228Z,99000.73
2023-04-14T10:34:20.381Z,99005.61
2023-04-14T10:36:49.114Z,99005.71
2023-04-14T10:39:24.369Z,99001.71
2023-04-14T10:41:54.092Z,99008.36
2023-04-14T10:44:40.626Z,99009.80
2023-04-14T10:47:11.658Z,99013.42
2023-04-14T10:49:41.516Z,99012.98
2023-04-14T10:52:15.720Z,99010.13
2023-04-14T10:54:53.908Z,99016.60
2023-04-14T10:57:22.867Z,99019.53
2023-04-14T10:59:58.953Z,99015.64
2023-04-14T11:02:32.333Z,99019.52
2023-04-14T11:05:05.352Z,99020.05
2023-04-14T11:07:38.436Z,99018.77
2023-04-14T11:10:24.807Z,99026.63
2023-04-14T11:13:06.111Z,99029.98
2023-04-14T11:16:03.459Z,99035.88
2023-04-14T11:18:44.928Z,99036.40
2023-04-14T11:21:16.601Z,99040.27
2023-04-14T11:23:49.391Z,99040.83
2023-04-14T11:26:26.158Z,99039.76
2023-04-14T11:29:03.530Z,99042.89
2023-04-14T11:31:33.175Z,99040.69
2023-04-14T11:34:04.019Z,99038.19
2023-04-14T11:36:39.262Z,99041.79
2023-04-14T11:39:12.557Z,99041.84
2023-04-14T11:41:43.472Z,99042.27
2023-04-14T11:44:19.234Z,99041.95
2023-04-14T11:46:48.485Z,99040.40
2023-04-14T11:49:22.261Z,99037.89
2023-04-14T11:51:54.149Z,99039.57
2023-04-14T11:54:23.387Z,99038.55
2023-04-14T11:56:51.475Z,99038.86
2023-04-14T11:59:20.843Z,99036.15
2023-04-14T12:01:51.418Z,99033.74
2023-04-14T12:04:20.787Z,99037.72
2023-04-14T12:09:32.322Z,99040.60
2023-04-14T12:12:08.792Z,99038.86
2023-04-14T12:14:49.481Z,99039.69
2023-04-14T12:17:22.030Z,99036.75
2023-04-14T12:19:51.789Z,99038.67
2023-04-14T12:22:28.004Z,99038.27
2023-04-14T12:27:55.789Z,99031.98
2023-04-14T12:30:26.590Z,99030.70
2023-04-14T12:32:57.374Z,99032.94
2023-04-14T12:35:25.537Z,99034.11
2023-04-14T12:37:54.339Z,99033.79
2023-04-14T12:40:39.573Z,99031.20
2023-04-14T12:43:07.903Z,99031.98
2023-04-14T12:48:13.978Z,99031.11
2023-04-14T12:50:42.236Z,99036.30
2023-04-14T12:53:28.835Z,99036.30
2023-04-14T12:56:09.733Z,99037.16
2023-04-14T13:01:23.811Z,99040.42
2023-04-14T13:03:56.211Z,99041.42
2023-04-14T13:06:25.689Z,99037.34
2023-04-14T13:08:57.030Z,99040.02
2023-04-14T13:11:25.525Z,99040.88
2023-04-14T13:13:55.225Z,99043.46
2023-04-14T13:16:26.610Z,99049.77
2023-04-14T13:18:55.749Z,99051.41
2023-04-14T13:21:23.916Z,99049.29
2023-04-14T13:23:51.931Z,99047.52
2023-04-14T13:26:20.144Z,99048.29
2023-04-14T13:28:51.793Z,99046.08
2023-04-14T13:31:20.935Z,99047.38
2023-04-14T13:33:49.171Z,99045.93
2023-04-14T13:36:17.247Z,99048.08
2023-04-14T13:39:20.869Z,99041.23
2023-04-14T13:41:49.656Z,99046.39
2023-04-14T13:44:19.470Z,99047.60
2023-04-14T13:46:49.523Z,99044.98
2023-04-14T13:49:18.190Z,99045.81
2023-04-14T13:51:46.624Z,99046.44
2023-04-14T13:54:14.895Z,99044.89
2023-04-14T13:56:43.092Z,99043.41
2023-04-14T13:59:14.087Z,99048.57
2023-04-14T14:01:42.448Z,99047.39
2023-04-14T14:04:11.600Z,99049.52
2023-04-14T14:06:39.855Z,99051.77
2023-04-14T14:09:08.308Z,99046.36
2023-04-14T14:11:42.245Z,99050.64
2023-04-14T14:14:16.150Z,99053.38
2023-04-14T14:16:44.628Z,99054.75
2023-04-14T14:19:17.179Z,99058.41
2023-04-14T14:21:47.793Z,99061.16
2023-04-14T14:24:16.574Z,99064.59
2023-04-14T14:26:44.735Z,99066.31
2023-04-14T14:29:13.183Z,99067.13
2023-04-14T14:31:41.655Z,99070.81
2023-04-14T14:34:09.959Z,99074.80
2023-04-14T14:36:37.980Z,99077.63
2023-04-14T14:39:09.789Z,99083.45
2023-04-14T14:41:38.993Z,99086.50
2023-04-14T14:44:07.341Z,99093.86
2023-04-14T14:46:36.348Z,99097.23
2023-04-14T14:49:05.505Z,99098.81
2023-04-14T14:51:34.023Z,99103.63
2023-04-14T14:54:10.077Z,99108.73
2023-04-14T14:56:39.203Z,99109.30
2023-04-14T14:59:08.583Z,99112.48
2023-04-14T15:01:37.340Z,99114.17
2023-04-14T15:04:06.783Z,99112.79
2023-04-14T15:06:36.564Z,99114.04
2023-04-14T15:09:05.751Z,99121.20
2023-04-14T15:11:38.916Z,99120.96
2023-04-14T15:14:09.687Z,99118.91
2023-04-14T15:16:38.284Z,99119.19
2023-04-14T15:19:12.404Z,99123.48
2023-04-14T15:21:43.573Z,99126.65
2023-04-14T15:24:11.771Z,99128.27
2023-04-14T15:26:39.760Z,99134.55
2023-04-14T15:29:08.061Z,99138.11
2023-04-14T15:31:36.383Z,99146.67
2023-04-14T15:34:05.103Z,99146.73
2023-04-14T15:36:35.560Z,99153.48
2023-04-14T15:39:03.510Z,99153.92
2023-04-14T15:41:32.875Z,99154.03
2023-04-14T15:44:02.120Z,99153.52
2023-04-14T15:46:30.669Z,99154.85
2023-04-14T15:49:03.828Z,99154.95
2023-04-14T15:51:32.449Z,99158.34
2023-04-14T15:54:01.508Z,99164.27
2023-04-14T15:56:31.502Z,99168.47
2023-04-14T15:59:00.703Z,99172.26
2023-04-14T16:01:28.735Z,99171.83
2023-04-14T16:03:57.805Z,99176.55
2023-04-14T16:06:28.674Z,99180.44
2023-04-14T16:11:34.105Z,99186.78
2023-04-14T16:14:05.129Z,99194.98
2023-04-14T16:16:35.011Z,99196.41
2023-04-14T16:19:03.205Z,99195.82
2023-04-14T16:21:33.999Z,99196.68
2023-04-14T16:24:02.909Z,99200.13
2023-04-14T16:26:31.438Z,99203.44
2023-04-14T16:29:02.544Z,99200.98
2023-04-14T16:31:31.952Z,99207.74
2023-04-14T16:34:00.661Z,99203.02
2023-04-14T16:36:29.176Z,99205.95
2023-04-14T16:38:58.422Z,99205.80
2023-04-14T16:41:27.241Z,99207.66
2023-04-14T16:44:00.496Z,99214.39
2023-04-14T16:46:29.351Z,99219.37
2023-04-14T16:48:57.470Z,99222.52
2023-04-14T16:51:28.018Z,99222.59
2023-04-14T16:53:56.644Z,99221.31
2023-04-14T16:56:24.609Z,99230.08
2023-04-14T16:58:52.960Z,99230.41
2023-04-14T17:01:21.084Z,99232.79
2023-04-14T17:03:49.561Z,99236.04
2023-04-14T17:06:17.723Z,99235.66
2023-04-14T17:08:47.267Z,99239.21
2023-04-14T17:11:15.800Z,99239.80
2023-04-14T17:13:44.046Z,99246.09
2023-04-14T17:16:18.884Z,99246.63
2023-04-14T17:18:48.338Z,99253.60
2023-04-14T17:21:16.640Z,99252.23
2023-04-14T17:23:55.539Z,99255.59
2023-04-14T17:26:26.354Z,99261.95
2023-04-14T17:28:54.322Z,99266.86
2023-04-14T17:31:24.756Z,99267.85
2023-04-14T17:33:53.526Z,99272.96
2023-04-14T17:36:21.660Z,99274.23
2023-04-14T17:38:50.962Z,99276.65
2023-04-14T17:41:18.979Z,99282.17
2023-04-14T17:43:48.452Z,99285.77
2023-04-14T17:46:17.696Z,99281.73
2023-04-14T17:48:47.595Z,99283.97
2023-04-14T17:51:17.408Z,99285.25
2023-04-14T17:53:48.039Z,99286.09
2023-04-14T17:56:20.450Z,99280.63
2023-04-14T17:58:52.044Z,99284.30
2023-04-14T18:01:20.307Z,99288.16
2023-04-14T18:03:49.259Z,99287.07
2023-04-14T18:06:20.369Z,99287.67
2023-04-14T18:08:51.692Z,99289.69
2023-04-14T18:11:21.432Z,99292.02
2023-04-14T18:13:49.645Z,99293.29
2023-04-14T18:16:20.018Z,99295.17
2023-04-14T18:18:51.574Z,99295.45
2023-04-14T18:21:19.804Z,99293.04
2023-04-14T18:28:56.289Z,99288.70
2023-04-14T18:31:25.283Z,99295.90
2023-04-14T18:34:14.006Z,99298.80
2023-04-14T18:36:44.268Z,99301.43
2023-04-14T18:39:12.656Z,99296.90
2023-04-14T18:41:45.594Z,99294.26
2023-04-14T18:44:15.876Z,99294.35
2023-04-14T18:46:44.857Z,99293.52
2023-04-14T18:49:13.575Z,99289.52
2023-04-14T18:51:42.073Z,99286.64
2023-04-14T18:54:10.571Z,99281.46
2023-04-14T18:56:39.262Z,99279.45
2023-04-14T18:59:10.213Z,99282.19
2023-04-14T19:01:39.370Z,99284.66
2023-04-14T19:04:08.092Z,99276.40
2023-04-14T19:06:36.651Z,99279.11
2023-04-14T19:09:04.869Z,99275.94
2023-04-14T19:11:42.210Z,99278.65
2023-04-14T19:14:12.899Z,99282.44
2023-04-14T19:16:41.261Z,99284.31
2023-04-14T19:19:09.235Z,99280.65
2023-04-14T19:21:39.190Z,99277.77
2023-04-14T19:24:08.294Z,99281.16
2023-04-14T19:26:40.545Z,99278.67
2023-04-14T19:29:09.586Z,99280.51
2023-04-14T19:31:38.651Z,99284.39
2023-04-14T19:34:06.852Z,99285.58
2023-04-14T19:36:35.355Z,99282.58
2023-04-14T19:39:04.038Z,99286.53
2023-04-14T19:41:34.734Z,99285.84
2023-04-14T19:44:04.878Z,99285.83
2023-04-14T19:46:35.727Z,99284.60
2023-04-14T19:49:06.011Z,99281.87
2023-04-14T19:51:35.039Z,99281.27
2023-04-14T19:54:07.194Z,99280.17
2023-04-14T19:56:35.223Z,99279.76
2023-04-14T19:59:04.070Z,99282.77
2023-04-14T20:01:32.434Z,99285.16
2023-04-14T20:04:06.705Z,99288.89
2023-04-14T20:06:44.029Z,99289.89
2023-04-14T20:09:14.476Z,99295.65
2023-04-14T20:11:42.836Z,99297.39
2023-04-14T20:14:11.501Z,99303.44
2023-04-14T20:16:40.727Z,99299.14
2023-04-14T20:19:09.574Z,99303.64
2023-04-14T20:21:38.672Z,99294.43
2023-04-14T20:24:06.742Z,99297.98
2023-04-14T20:26:42.753Z,99304.77
2023-04-14T20:29:12.326Z,99301.19
2023-04-14T20:31:42.885Z,99308.42
2023-04-14T20:34:11.711Z,99309.20
2023-04-14T20:36:40.217Z,99310.13
2023-04-14T20:39:08.601Z,99316.83
2023-04-14T20:41:37.672Z,99321.97
2023-04-14T20:44:06.388Z,99327.55
2023-04-14T20:46:34.565Z,99326.95
2023-04-14T20:49:04.299Z,99329.45
2023-04-14T20:51:33.971Z,99335.98
2023-04-14T20:54:03.025Z,99340.92
2023-04-14T20:56:36.208Z,99346.23
2023-04-14T20:59:06.791Z,99352.48
2023-04-14T21:01:34.971Z,99358.73
2023-04-14T21:04:04.429Z,99358.59
2023-04-14T21:06:33.536Z,99361.13
2023-04-14T21:09:02.014Z,99364.45
2023-04-14T21:11:31.912Z,99370.45
2023-04-14T21:15:40.009Z,99373.13
2023-04-14T21:16:49.044Z,99376.49
2023-04-14T21:19:17.416Z,99385.48
2023-04-14T21:21:49.688Z,99385.21
2023-04-14T21:24:18.425Z,99392.95
2023-04-14T21:26:46.940Z,99399.70
2023-04-14T21:29:15.205Z,99395.43
2023-04-14T21:31:45.203Z,99399.86
2023-04-14T21:34:13.750Z,99411.67
2023-04-14T21:36:41.900Z,99413.58
2023-04-14T21:39:10.153Z,99421.21
2023-04-14T21:41:38.121Z,99424.11
2023-04-14T21:44:06.924Z,99431.95
2023-04-14T21:46:35.139Z,99438.87
2023-04-14T21:49:04.118Z,99439.98
2023-04-14T21:51:32.622Z,99445.73
2023-04-14T21:54:01.921Z,99452.95
2023-04-14T21:56:31.461Z,99458.34
2023-04-14T21:59:02.606Z,99457.91
2023-04-14T22:01:32.523Z,99458.73
2023-04-14T22:04:01.381Z,99460.60
2023-04-14T22:06:29.850Z,99464.27
2023-04-14T22:09:04.663Z,99459.03
2023-04-14T22:11:33.358Z,99463.81
2023-04-14T22:14:02.950Z,99463.48
2023-04-14T22:16:37.969Z,99468.27
2023-04-14T22:19:09.301Z,99467.61
2023-04-14T22:21:37.952Z,99467.73
2023-04-14T22:24:07.326Z,99475.36
2023-04-14T22:26:36.649Z,99480.00
2023-04-14T22:29:04.855Z,99477.55
2023-04-14T22:31:33.256Z,99478.10
2023-04-14T22:34:02.665Z,99478.45
2023-04-14T22:36:33.771Z,99477.48
2023-04-14T22:39:02.090Z,99480.83
2023-04-14T22:41:32.110Z,99478.00
2023-04-14T22:44:00.647Z,99474.02
2023-04-14T22:46:31.055Z,99476.80
2023-04-14T22:48:59.430Z,99476.29
2023-04-14T22:51:30.501Z,99473.70
2023-04-14T22:53:59.257Z,99468.73
2023-04-14T22:56:28.419Z,99472.34
2023-04-14T22:58:59.482Z,99471.88
2023-04-14T23:01:29.439Z,99472.35
2023-04-14T23:03:57.483Z,99467.50
2023-04-14T23:06:25.870Z,99463.43
2023-04-14T23:08:59.659Z,99462.33
2023-04-14T23:11:29.091Z,99463.33
2023-04-14T23:13:57.359Z,99463.41
2023-04-14T23:16:28.754Z,99463.81
2023-04-14T23:19:07.050Z,99464.32
2023-04-14T23:21:35.519Z,99463.80
2023-04-14T23:24:04.519Z,99462.34
2023-04-14T23:26:41.823Z,99460.81
2023-04-14T23:29:11.007Z,99451.90
2023-04-14T23:31:39.304Z,99448.33
2023-04-14T23:34:12.774Z,99443.98
2023-04-14T23:36:46.058Z,99441.80
2023-04-14T23:39:15.303Z,99437.01
2023-04-14T23:41:48.914Z,99444.39
2023-04-14T23:44:17.579Z,99450.47
2023-04-14T23:46:46.234Z,99449.62
2023-04-14T23:49:24.614Z,99451.31
2023-04-14T23:52:03.585Z,99448.97
2023-04-14T23:54:31.906Z,99449.09
2023-04-14T23:57:01.799Z,99451.41
2023-04-14T23:59:30.108Z,99455.52
